Latest Weather Observations for Roebourne Airport

IDW60801

Issued at 11:02 am WST Saturday 1 August 2015 (issued every 30 minutes, with the page automatically refreshed every 10 minutes)

About weather observations | Map of weather stations | Latest weather observations for WA | Other Formats
Station Details ID: 004090 Name: ROEBOURNE AERO Lat: -20.76 Lon: 117.16 Height: 10.7 m
Data from the previous 72 hours. | See also: Recent months at Roebourne Airport
Date/Time
WST
Temp
°C
App
Temp
°C
Dew
Point
Rel
Hum
%
Delta-T
°C
Wind Press
QNH
hPa
Press
MSL
hPa
Rain
since 9 am
mm
Dir
 
Spd
km/h
Gust
km/h
Spd
kts
Gust
kts
01/11:00am 28.7 27.1 13.8 40 8.9 SSW 15 24 8 13 1017.8 1017.7 0.0
01/10:30am 28.0 27.0 15.6 46 7.6 SSE 15 20 8 11 1018.2 1018.1 0.0
01/10:00am 26.4 25.3 15.4 50 6.7 S 15 20 8 11 1018.6 1018.5 0.0
01/09:30am 25.4 24.7 16.3 57 5.6 SSW 15 20 8 11 1018.6 1018.5 0.0
01/09:00am 23.1 23.9 16.4 66 4.1 WSW 7 13 4 7 1018.4 1018.3 0.0
01/08:30am 21.6 22.6 16.8 74 2.9 N 7 9 4 5 1018.0 1017.9 0.0
01/08:00am 20.1 20.7 17.7 86 1.5 SW 11 13 6 7 1017.4 1017.3 0.0
01/07:30am 16.7 17.6 16.5 99 0.1 WSW 7 9 4 5 1017.1 1017.0 0.0
01/07:00am 14.6 16.0 14.3 98 0.2 CALM 0 0 0 0 1016.7 1016.6 0.0
01/06:30am 14.8 15.9 14.6 99 0.1 W 2 6 1 3 1016.4 1016.3 0.0
01/06:00am 14.0 15.1 13.5 97 0.3 CALM 0 0 0 0 1016.1 1016.0 0.0
01/05:30am 14.4 14.5 13.9 97 0.3 W 6 7 3 4 1015.7 1015.6 0.0
01/05:00am 14.5 15.7 13.9 96 0.3 CALM 0 0 0 0 1015.6 1015.5 0.0
01/04:30am 15.6 16.5 15.0 96 0.3 WSW 4 7 2 4 1015.5 1015.4 0.0
01/04:00am 17.4 17.7 17.1 98 0.2 WNW 11 13 6 7 1015.4 1015.3 0.0
01/03:30am 16.4 16.9 15.6 95 0.5 W 7 9 4 5 1015.5 1015.4 0.0
01/03:00am 17.7 18.4 17.1 96 0.4 WNW 9 13 5 7 1015.8 1015.7 0.0
01/02:30am 18.2 19.0 17.4 95 0.5 NNW 9 11 5 6 1016.0 1015.9 0.0
01/02:00am 18.8 19.8 17.8 94 0.6 W 9 11 5 6 1016.0 1015.9 0.0
01/01:30am 19.4 19.9 18.4 94 0.6 W 13 17 7 9 1016.1 1016.0 0.0
01/01:00am 19.4 20.0 18.6 95 0.5 W 13 17 7 9 1016.4 1016.3 0.0
01/12:30am 19.1 19.8 17.9 93 0.7 W 11 15 6 8 1016.7 1016.6 0.0
01/12:00am 19.4 20.2 18.1 92 0.8 WNW 11 15 6 8 1016.8 1016.7 0.0
 
Date/Time
WST
Temp
°C
App
Temp
°C
Dew
Point
Rel
Hum
%
Delta-T
°C
Wind Press
QNH
hPa
Press
MSL
hPa
Rain
since 9 am
mm
Dir
 
Spd
km/h
Gust
km/h
Spd
kts
Gust
kts
31/11:30pm 19.9 20.7 18.2 90 1.1 W 11 13 6 7 1016.9 1016.8 0.0
31/11:00pm 20.2 20.9 18.0 87 1.4 W 11 15 6 8 1016.9 1016.8 0.0
31/10:30pm 20.7 20.6 17.9 84 1.7 W 15 17 8 9 1016.7 1016.6 0.0
31/10:00pm 20.9 21.2 17.9 83 1.9 WNW 13 17 7 9 1016.6 1016.5 0.0
31/09:30pm 21.2 21.5 18.0 82 2.0 WNW 13 17 7 9 1016.6 1016.5 0.0
31/09:00pm 21.1 21.5 18.1 83 1.9 WNW 13 17 7 9 1016.7 1016.6 0.0
31/08:30pm 20.2 22.4 16.4 79 2.3 CALM 0 0 0 0 1016.5 1016.4 0.0
31/08:00pm 20.5 22.7 16.5 78 2.4 CALM 0 7 0 4 1016.2 1016.1 0.0
31/07:30pm 20.7 21.7 15.3 71 3.2 N 4 9 2 5 1015.8 1015.7 0.0
31/07:00pm 22.4 22.5 16.4 69 3.6 NW 11 15 6 8 1015.5 1015.4 0.0
31/06:30pm 23.3 22.4 15.9 63 4.5 WNW 15 20 8 11 1015.3 1015.2 0.0
31/06:00pm 24.1 21.7 13.9 53 6.0 WNW 19 22 10 12 1015.0 1014.9 0.0
31/05:30pm 25.6 23.3 14.7 51 6.5 NW 20 28 11 15 1014.8 1014.7 0.0
31/05:00pm 26.3 23.4 15.0 49 6.8 NW 24 28 13 15 1014.6 1014.5 0.0
31/04:30pm 26.9 24.0 15.0 48 7.2 NW 24 32 13 17 1014.5 1014.4 0.0
31/04:00pm 27.7 25.5 16.0 49 7.2 NNW 22 28 12 15 1014.5 1014.4 0.0
31/03:30pm 28.0 25.2 15.3 46 7.7 NNW 24 28 13 15 1014.3 1014.2 0.0
31/03:00pm 29.3 26.0 12.7 36 9.8 N 22 28 12 15 1014.3 1014.2 0.0
31/02:30pm 29.6 26.5 13.4 37 9.7 N 22 28 12 15 1014.4 1014.3 0.0
31/02:00pm 30.3 27.3 13.6 36 10.0 N 22 28 12 15 1014.7 1014.6 0.0
31/01:30pm 31.0 27.6 13.7 34 10.4 N 24 30 13 16 1015.1 1015.0 0.0
31/01:00pm 30.5 26.5 10.5 29 11.4 N 22 30 12 16 1015.5 1015.4 0.0
31/12:30pm 30.0 25.8 11.0 31 10.9 NNE 24 32 13 17 1015.8 1015.7 0.0
31/12:00pm 30.1 27.3 12.5 34 10.3 NNE 19 30 10 16 1016.0 1015.9 0.0
31/11:30am 31.2 28.3 4.9 19 13.8 SW 9 15 5 8 1016.3 1016.2 0.0
31/11:00am 30.6 28.2 7.1 23 12.7 S 9 15 5 8 1016.8 1016.7 0.0
31/10:30am 30.0 27.2 8.4 26 11.9 S 13 17 7 9 1017.4 1017.3 0.0
31/10:00am 28.2 25.1 9.0 30 10.6 S 15 20 8 11 1017.9 1017.8 0.0
31/09:30am 27.1 24.3 9.9 34 9.6 SSW 15 20 8 11 1018.0 1017.9 0.0
31/09:00am 25.7 24.2 11.8 42 7.9 SSW 11 15 6 8 1017.9 1017.8 0.0
31/08:30am 22.6 21.4 11.7 50 6.1 SSW 9 11 5 6 1017.6 1017.5 0.0
31/08:00am 19.9 19.1 11.7 59 4.5 SW 7 11 4 6 1017.2 1017.1 0.0
31/07:30am 15.6 14.0 11.6 77 2.2 SW 11 13 6 7 1017.0 1016.9 0.0
31/07:00am 12.0 9.6 10.1 88 1.0 SSW 13 15 7 8 1017.0 1016.9 0.0
31/06:30am 11.9 10.3 10.1 89 0.9 SSW 9 11 5 6 1017.0 1016.9 0.0
31/06:00am 11.9 11.8 9.3 84 1.3 CALM 0 0 0 0 1016.9 1016.8 0.0
31/05:30am 12.6 12.7 10.3 86 1.2 CALM 0 7 0 4 1016.7 1016.6 0.0
31/05:00am 11.7 11.6 9.4 86 1.2 CALM 0 4 0 2 1016.6 1016.5 0.0
31/04:30am 13.0 12.4 10.5 85 1.3 N 4 7 2 4 1016.4 1016.3 0.0
31/04:00am 12.9 12.7 10.3 84 1.3 N 2 7 1 4 1016.6 1016.5 0.0
31/03:30am 13.4 12.0 10.9 85 1.3 SSW 9 11 5 6 1016.9 1016.8 0.0
31/03:00am 13.3 13.6 11.0 86 1.2 CALM 0 6 0 3 1017.0 1016.9 0.0
31/02:30am 14.0 14.5 11.5 85 1.3 CALM 0 6 0 3 1017.2 1017.1 0.0
31/02:00am 14.8 15.1 12.3 85 1.4 SW 2 6 1 3 1017.6 1017.5 0.0
31/01:30am 14.3 12.6 11.3 82 1.6 SW 11 19 6 10 1018.1 1018.0 0.0
31/01:00am 14.3 14.7 11.1 81 1.7 CALM 0 0 0 0 1018.3 1018.2 0.0
31/12:30am 14.4 14.6 10.4 77 2.1 CALM 0 0 0 0 1018.5 1018.4 0.0
31/12:00am 14.5 14.7 10.7 78 2.0 CALM 0 0 0 0 1018.6 1018.5 0.0
 
Date/Time
WST
Temp
°C
App
Temp
°C
Dew
Point
Rel
Hum
%
Delta-T
°C
Wind Press
QNH
hPa
Press
MSL
hPa
Rain
since 9 am
mm
Dir
 
Spd
km/h
Gust
km/h
Spd
kts
Gust
kts
30/11:30pm 15.9 16.8 12.8 82 1.7 CALM 0 0 0 0 1018.9 1018.8 0.0
30/11:00pm 16.1 16.1 12.3 78 2.1 WNW 4 6 2 3 1019.0 1018.9 0.0
30/10:30pm 16.9 16.5 12.4 75 2.5 SW 6 9 3 5 1019.1 1019.0 0.0
30/10:00pm 16.7 15.1 11.6 72 2.8 SW 11 15 6 8 1019.0 1018.9 0.0
30/09:30pm 17.0 15.8 11.5 70 3.0 SW 9 11 5 6 1018.9 1018.8 0.0
30/09:00pm 18.5 18.0 12.7 69 3.2 SW 7 9 4 5 1018.8 1018.7 0.0
30/08:30pm 18.5 17.2 12.5 68 3.3 SW 11 13 6 7 1018.8 1018.7 0.0
30/08:00pm 19.4 18.6 11.7 61 4.2 W 7 7 4 4 1018.5 1018.4 0.0
30/07:30pm 20.0 19.0 12.3 61 4.3 WSW 9 11 5 6 1018.4 1018.3 0.0
30/07:00pm 22.0 22.0 14.1 61 4.6 WNW 7 11 4 6 1018.2 1018.1 0.0
30/06:30pm 22.7 22.4 14.5 60 4.8 NNW 9 11 5 6 1017.9 1017.8 0.0
30/06:00pm 23.8 23.4 13.1 51 6.2 NNW 7 11 4 6 1017.7 1017.6 0.0
30/05:30pm 25.4 22.7 12.9 45 7.3 N 19 20 10 11 1017.6 1017.5 0.0
30/05:00pm 26.5 23.5 11.8 40 8.4 N 19 20 10 11 1017.6 1017.5 0.0
30/04:30pm 27.1 24.7 12.7 41 8.4 NNE 17 20 9 11 1017.6 1017.5 0.0
30/04:00pm 27.5 24.6 12.3 39 8.8 NNE 19 24 10 13 1017.7 1017.6 0.0
30/03:30pm 28.2 25.4 12.5 37 9.2 NE 19 24 10 13 1017.8 1017.7 0.0
30/03:00pm 28.4 25.3 13.5 40 8.8 NE 22 30 12 16 1018.0 1017.9 0.0
30/02:30pm 28.0 24.4 13.1 39 8.8 NE 24 32 13 17 1018.2 1018.1 0.0
30/02:00pm 28.9 24.8 11.5 34 10.0 NE 24 35 13 19 1018.5 1018.4 0.0
30/01:30pm 28.8 24.3 11.4 34 10.0 NE 26 33 14 18 1018.8 1018.7 0.0
30/01:00pm 28.7 23.7 10.8 33 10.2 NE 28 33 15 18 1019.1 1019.0 0.0
30/12:30pm 29.1 23.9 10.3 31 10.6 NE 28 35 15 19 1019.5 1019.4 0.0
30/12:00pm 29.3 24.0 8.4 27 11.4 ENE 26 35 14 19 1019.8 1019.7 0.0
30/11:30am 29.0 23.0 7.0 25 11.8 ENE 28 35 15 19 1020.3 1020.2 0.0
30/11:00am 29.0 22.2 7.0 25 11.7 ENE 32 39 17 21 1020.5 1020.4 0.0
30/10:30am 29.4 25.2 11.0 32 10.5 E 24 33 13 18 1020.6 1020.5 0.0
30/10:00am 28.3 24.0 10.9 34 9.9 ESE 24 30 13 16 1020.7 1020.6 0.0
30/09:30am 27.4 24.2 11.4 37 9.1 ESE 19 24 10 13 1020.6 1020.5 0.0
30/09:00am 25.8 25.2 13.6 47 7.2 E 9 13 5 7 1020.6 1020.5 0.0
30/08:30am 22.5 22.5 13.6 57 5.2 SSE 6 11 3 6 1020.2 1020.1 0.0
30/08:00am 20.4 19.4 13.4 64 4.0 E 11 13 6 7 1019.9 1019.8 0.0
30/07:30am 17.6 17.8 14.1 80 2.0 NE 6 7 3 4 1019.3 1019.2 0.0
30/07:00am 15.4 14.9 12.7 84 1.5 NE 7 9 4 5 1019.0 1018.9 0.0
30/06:30am 15.1 15.9 12.6 85 1.4 CALM 0 0 0 0 1018.7 1018.6 0.0
30/06:00am 14.4 13.9 11.9 85 1.3 NNE 6 7 3 4 1018.3 1018.2 0.0
30/05:30am 15.8 15.5 12.7 82 1.7 SW 6 7 3 4 1018.1 1018.0 0.0
30/05:00am 15.7 15.4 12.6 82 1.7 SW 6 7 3 4 1018.0 1017.9 0.0
30/04:30am 16.0 15.6 12.9 82 1.7 SE 7 9 4 5 1017.9 1017.8 0.0
30/04:00am 15.9 15.3 13.4 85 1.4 SSW 9 9 5 5 1017.9 1017.8 0.0
30/03:30am 16.5 17.7 13.8 84 1.5 CALM 0 0 0 0 1018.1 1018.0 0.0
30/03:00am 16.1 17.1 13.2 83 1.6 CALM 0 0 0 0 1018.3 1018.2 0.0
30/02:30am 17.2 17.0 13.5 79 2.1 SSW 7 9 4 5 1018.5 1018.4 0.0
30/02:00am 17.7 17.2 15.0 84 1.6 SSW 11 11 6 6 1018.6 1018.5 0.0
30/01:30am 17.5 17.3 14.6 83 1.7 SSW 9 11 5 6 1018.8 1018.7 0.0
30/01:00am 17.5 16.4 14.4 82 1.8 SSW 13 15 7 8 1019.0 1018.9 0.0
30/12:30am 18.0 17.9 14.9 82 1.8 S 9 13 5 7 1019.0 1018.9 0.0
30/12:00am 17.8 17.2 14.5 81 1.9 SE 11 13 6 7 1019.1 1019.0 0.0
 
Date/Time
WST
Temp
°C
App
Temp
°C
Dew
Point
Rel
Hum
%
Delta-T
°C
Wind Press
QNH
hPa
Press
MSL
hPa
Rain
since 9 am
mm
Dir
 
Spd
km/h
Gust
km/h
Spd
kts
Gust
kts
29/11:30pm 18.6 18.7 14.5 77 2.4 ESE 7 9 4 5 1019.2 1019.1 0.0
29/11:00pm 18.1 17.6 13.8 76 2.4 ESE 9 11 5 6 1019.4 1019.3 0.0
29/10:30pm 17.9 16.2 12.6 71 3.0 ESE 13 13 7 7 1019.5 1019.4 0.0
29/10:00pm 18.6 17.9 13.2 71 3.0 ESE 9 11 5 6 1019.5 1019.4 0.0
29/09:30pm 19.2 19.1 14.0 72 3.0 SE 7 9 4 5 1019.7 1019.6 0.0
29/09:00pm 19.3 19.2 13.9 71 3.1 SE 7 7 4 4 1019.7 1019.6 0.0
29/08:30pm 19.9 20.1 14.3 70 3.2 ESE 6 6 3 3 1019.6 1019.5 0.0
29/08:00pm 20.2 20.5 14.6 70 3.3 ESE 6 7 3 4 1019.3 1019.2 0.0
29/07:30pm 20.8 21.2 14.7 68 3.6 E 6 6 3 3 1019.0 1018.9 0.0
29/07:00pm 21.0 21.1 13.9 64 4.1 NE 6 7 3 4 1018.5 1018.4 0.0
29/06:30pm 22.3 21.8 14.9 63 4.4 NNE 11 13 6 7 1018.2 1018.1 0.0
29/06:00pm 23.5 23.0 15.0 59 5.1 NNE 11 13 6 7 1018.0 1017.9 0.0
29/05:30pm 25.3 23.7 13.8 49 6.8 NNE 15 17 8 9 1017.7 1017.6 0.0
29/05:00pm 27.1 25.6 14.1 44 7.7 NNE 15 17 8 9 1017.6 1017.5 0.0
29/04:30pm 28.3 25.9 12.6 38 9.2 NE 17 20 9 11 1017.6 1017.5 0.0
29/04:00pm 28.2 25.6 13.7 41 8.6 NE 20 26 11 14 1017.7 1017.6 0.0
29/03:30pm 30.1 26.3 11.1 31 10.9 NE 22 26 12 14 1017.7 1017.6 0.0
29/03:00pm 31.2 27.5 11.6 30 11.4 NE 22 28 12 15 1017.6 1017.5 0.0
29/02:30pm 31.5 28.3 11.3 29 11.7 NNE 19 26 10 14 1017.9 1017.8 0.0
29/02:00pm 31.1 27.6 11.0 29 11.6 NNE 20 26 11 14 1018.1 1018.0 0.0
29/01:30pm 31.3 27.7 10.6 28 11.9 NNE 20 24 11 13 1018.4 1018.3 0.0
29/01:00pm 31.7 28.2 11.0 28 12.0 NNE 20 26 11 14 1018.9 1018.8 0.0
29/12:30pm 30.9 27.4 10.3 28 11.8 NNE 19 28 10 15 1019.2 1019.1 0.0
29/12:00pm 30.9 27.2 10.3 28 11.7 NNE 20 28 11 15 1019.7 1019.6 0.0
29/11:30am 31.2 27.5 9.4 26 12.3 NE 19 26 10 14 1020.0 1019.9 0.0

Other Formats:

Comma delimited format used in spreadsheet applications
http://www.bom.gov.au/fwo/IDW60801/IDW60801.94308.axf

JavaScript Object Notation format (JSON) in row-major order
http://www.bom.gov.au/fwo/IDW60801/IDW60801.94308.json